Main page
Satellite images 10-day forecastsClimateMarine weather Cyclones Lightning AirportsFAQ Newsletter About
Weather : Europe Africa North America South America Asia Australia-Oceania Others
Languages Contact

Mexicali, Mexico

General Rodolfo Sánchez Taboada International Airport

latitude: 32-37-50N, longitude: 115-14-30W, elevation: 22 m


METAR: MMML 052045Z 14015KT 10SM SKC 37/13 A2980 RMK SLP091 57013 930 DSNT TCU S SW
TAF: MMML 051655Z 0518/0618 14012KT P6SM SKC FM060300 00000KT P6SM SCT250

Time: 16:01 (21:01 UTC)

Current weather observation

The report was made 16 minutes ago, at 20:45 UTC
Wind 15 kt from the Southeast
Temperature 37°C
Humidity 24%
Pressure 1009 hPa
Visibility: 16.1 km
Clear sky

Change units

Forecast

The report was made 4 hours and 6 minutes ago, at 16:55 UTC
Forecast valid from 05 at 18 UTC to 06 at 18 UTC
Wind 12 kt from the Southeast
Visibility: 10 km
Clear sky
From 06 at 0300 UTC
Wind kt from the North
Visibility: 10 km
Scattered clouds at a height of 25000 ft
The information on this site is subject to a disclaimer
Weather : Europe Africa North America South America Asia Australia-Oceania Others
Satellite images 10-day forecastsClimateMarine weather Cyclones Lightning AirportsFAQ Languages Contact Newsletter About